Montreal-Ouest, Canada
Current Conditions -  °F | °C
As of 11:00 AM on Sunday 23 Nov 2014 (Local Time) from CYUL Reporting Station
Haze Haze  
Wind Chill: 36°   Ceiling: 300
Heat Index: 41°   Visibility: 1mi
Dew Point: 39°   Wind: 8mph
Humidity: 93%   Direction: 210°SSW
Pressure: 30.04"   Gusts: NA
Location:  45.45°N, 73.65°W
Report Text: CYUL 231600Z 21007KT 1SM R24R/P6000FT/D R24L/P6000FT/N BR OVC003 05/04 A3004 RMK ST8 SLP172
Loading
Personal Weather Stations






























Interactive Weather Map New forecast layout! Learn more

10-Day Weather Forecast

Advertisements
Track Severe Weather on mobile